sensor_id;sensor_type;location;lat;lon;timestamp;P1;durP1;ratioP1;P2;durP2;ratioP2
4448;SDS011;2237;51.870;6.160;2022-12-18T00:00:47;30.77;;;11.63;;
4448;SDS011;2237;51.870;6.160;2022-12-18T00:03:14;28.98;;;10.88;;
4448;SDS011;2237;51.870;6.160;2022-12-18T00:05:47;24.83;;;9.13;;
4448;SDS011;2237;51.870;6.160;2022-12-18T00:08:17;31.25;;;11.80;;
4448;SDS011;2237;51.870;6.160;2022-12-18T00:10:45;28.85;;;11.32;;
4448;SDS011;2237;51.870;6.160;2022-12-18T00:13:12;32.08;;;10.25;;
4448;SDS011;2237;51.870;6.160;2022-12-18T00:15:38;32.90;;;11.65;;
4448;SDS011;2237;51.870;6.160;2022-12-18T00:18:06;31.83;;;11.98;;
4448;SDS011;2237;51.870;6.160;2022-12-18T00:20:36;31.25;;;11.65;;
4448;SDS011;2237;51.870;6.160;2022-12-18T00:23:06;32.70;;;11.23;;
4448;SDS011;2237;51.870;6.160;2022-12-18T00:25:33;34.40;;;11.55;;
4448;SDS011;2237;51.870;6.160;2022-12-18T00:28:02;30.00;;;11.50;;
4448;SDS011;2237;51.870;6.160;2022-12-18T00:30:29;31.17;;;11.45;;
4448;SDS011;2237;51.870;6.160;2022-12-18T00:32:55;28.13;;;10.52;;
4448;SDS011;2237;51.870;6.160;2022-12-18T00:35:22;21.25;;;8.40;;
4448;SDS011;2237;51.870;6.160;2022-12-18T00:37:48;30.70;;;12.18;;
4448;SDS011;2237;51.870;6.160;2022-12-18T00:40:14;21.13;;;8.45;;
4448;SDS011;2237;51.870;6.160;2022-12-18T00:42:41;22.02;;;9.52;;
4448;SDS011;2237;51.870;6.160;2022-12-18T00:45:26;25.55;;;9.55;;
4448;SDS011;2237;51.870;6.160;2022-12-18T00:47:54;26.40;;;10.52;;
4448;SDS011;2237;51.870;6.160;2022-12-18T00:50:22;28.35;;;10.50;;
4448;SDS011;2237;51.870;6.160;2022-12-18T00:52:50;23.65;;;8.80;;
4448;SDS011;2237;51.870;6.160;2022-12-18T00:55:17;31.90;;;9.20;;
4448;SDS011;2237;51.870;6.160;2022-12-18T00:57:44;18.65;;;6.10;;
4448;SDS011;2237;51.870;6.160;2022-12-18T01:00:11;29.60;;;9.93;;
4448;SDS011;2237;51.870;6.160;2022-12-18T01:02:40;21.02;;;7.15;;
4448;SDS011;2237;51.870;6.160;2022-12-18T01:05:07;22.88;;;9.07;;
4448;SDS011;2237;51.870;6.160;2022-12-18T01:07:35;28.20;;;9.82;;
4448;SDS011;2237;51.870;6.160;2022-12-18T01:10:02;24.75;;;9.35;;
4448;SDS011;2237;51.870;6.160;2022-12-18T01:12:29;22.70;;;9.30;;
4448;SDS011;2237;51.870;6.160;2022-12-18T01:14:56;12.90;;;5.20;;
4448;SDS011;2237;51.870;6.160;2022-12-18T01:17:22;26.30;;;9.25;;
4448;SDS011;2237;51.870;6.160;2022-12-18T01:19:49;24.65;;;9.93;;
4448;SDS011;2237;51.870;6.160;2022-12-18T01:22:15;22.23;;;7.50;;
4448;SDS011;2237;51.870;6.160;2022-12-18T01:24:41;21.35;;;8.55;;
4448;SDS011;2237;51.870;6.160;2022-12-18T01:27:08;16.10;;;7.15;;
4448;SDS011;2237;51.870;6.160;2022-12-18T01:29:34;21.02;;;8.40;;
4448;SDS011;2237;51.870;6.160;2022-12-18T01:32:00;25.80;;;9.43;;
4448;SDS011;2237;51.870;6.160;2022-12-18T01:34:27;20.10;;;8.07;;
4448;SDS011;2237;51.870;6.160;2022-12-18T01:36:53;15.32;;;6.93;;
4448;SDS011;2237;51.870;6.160;2022-12-18T01:39:19;17.83;;;7.07;;
4448;SDS011;2237;51.870;6.160;2022-12-18T01:41:46;16.35;;;6.43;;
4448;SDS011;2237;51.870;6.160;2022-12-18T01:47:35;21.17;;;7.82;;
4448;SDS011;2237;51.870;6.160;2022-12-18T01:50:04;23.33;;;7.75;;
4448;SDS011;2237;51.870;6.160;2022-12-18T01:52:36;23.23;;;8.77;;
4448;SDS011;2237;51.870;6.160;2022-12-18T01:55:04;22.80;;;6.40;;
4448;SDS011;2237;51.870;6.160;2022-12-18T01:57:32;19.77;;;8.05;;
4448;SDS011;2237;51.870;6.160;2022-12-18T02:00:00;20.98;;;7.78;;
4448;SDS011;2237;51.870;6.160;2022-12-18T02:02:33;21.20;;;7.20;;
4448;SDS011;2237;51.870;6.160;2022-12-18T02:04:59;16.55;;;6.20;;
4448;SDS011;2237;51.870;6.160;2022-12-18T02:07:32;23.95;;;8.32;;
4448;SDS011;2237;51.870;6.160;2022-12-18T02:13:04;22.10;;;7.82;;
4448;SDS011;2237;51.870;6.160;2022-12-18T02:15:51;19.73;;;7.38;;
4448;SDS011;2237;51.870;6.160;2022-12-18T02:18:32;15.73;;;6.25;;
4448;SDS011;2237;51.870;6.160;2022-12-18T02:29:11;14.02;;;6.45;;
4448;SDS011;2237;51.870;6.160;2022-12-18T02:31:45;19.60;;;7.05;;
4448;SDS011;2237;51.870;6.160;2022-12-18T02:34:17;20.52;;;7.13;;
4448;SDS011;2237;51.870;6.160;2022-12-18T02:36:46;18.70;;;7.35;;
4448;SDS011;2237;51.870;6.160;2022-12-18T02:39:14;15.35;;;6.88;;
4448;SDS011;2237;51.870;6.160;2022-12-18T02:41:41;17.83;;;7.22;;
4448;SDS011;2237;51.870;6.160;2022-12-18T02:44:09;18.48;;;6.63;;
4448;SDS011;2237;51.870;6.160;2022-12-18T02:46:39;16.60;;;5.82;;
4448;SDS011;2237;51.870;6.160;2022-12-18T02:52:13;16.30;;;6.35;;
4448;SDS011;2237;51.870;6.160;2022-12-18T03:00:41;16.48;;;6.35;;
4448;SDS011;2237;51.870;6.160;2022-12-18T03:03:16;12.30;;;5.68;;
4448;SDS011;2237;51.870;6.160;2022-12-18T03:05:53;13.02;;;5.60;;
4448;SDS011;2237;51.870;6.160;2022-12-18T03:08:24;12.77;;;4.55;;
4448;SDS011;2237;51.870;6.160;2022-12-18T03:10:57;15.85;;;6.55;;
4448;SDS011;2237;51.870;6.160;2022-12-18T03:16:27;19.20;;;6.35;;
4448;SDS011;2237;51.870;6.160;2022-12-18T03:18:57;13.50;;;5.70;;
4448;SDS011;2237;51.870;6.160;2022-12-18T03:21:32;17.98;;;6.05;;
4448;SDS011;2237;51.870;6.160;2022-12-18T03:24:11;12.18;;;5.22;;
4448;SDS011;2237;51.870;6.160;2022-12-18T03:26:38;14.30;;;6.10;;
4448;SDS011;2237;51.870;6.160;2022-12-18T03:29:10;12.93;;;5.80;;
4448;SDS011;2237;51.870;6.160;2022-12-18T03:31:40;9.48;;;4.22;;
4448;SDS011;2237;51.870;6.160;2022-12-18T03:34:15;7.68;;;2.65;;
4448;SDS011;2237;51.870;6.160;2022-12-18T03:36:47;10.02;;;3.80;;
4448;SDS011;2237;51.870;6.160;2022-12-18T03:39:14;11.35;;;4.13;;
4448;SDS011;2237;51.870;6.160;2022-12-18T03:49:37;13.05;;;6.00;;
4448;SDS011;2237;51.870;6.160;2022-12-18T03:52:09;7.35;;;3.67;;
4448;SDS011;2237;51.870;6.160;2022-12-18T03:54:46;14.45;;;5.57;;
4448;SDS011;2237;51.870;6.160;2022-12-18T03:57:14;8.48;;;3.28;;
4448;SDS011;2237;51.870;6.160;2022-12-18T04:02:11;13.38;;;5.53;;
4448;SDS011;2237;51.870;6.160;2022-12-18T04:04:38;11.75;;;3.78;;
4448;SDS011;2237;51.870;6.160;2022-12-18T04:07:07;10.05;;;4.65;;
4448;SDS011;2237;51.870;6.160;2022-12-18T04:09:35;16.02;;;6.63;;
4448;SDS011;2237;51.870;6.160;2022-12-18T04:12:04;14.77;;;5.55;;
4448;SDS011;2237;51.870;6.160;2022-12-18T04:14:31;15.55;;;6.40;;
4448;SDS011;2237;51.870;6.160;2022-12-18T04:17:02;9.68;;;4.85;;
4448;SDS011;2237;51.870;6.160;2022-12-18T04:19:28;18.30;;;5.15;;
4448;SDS011;2237;51.870;6.160;2022-12-18T04:21:55;12.13;;;4.32;;
4448;SDS011;2237;51.870;6.160;2022-12-18T04:24:21;17.80;;;6.50;;
4448;SDS011;2237;51.870;6.160;2022-12-18T04:26:47;4.70;;;1.58;;
4448;SDS011;2237;51.870;6.160;2022-12-18T04:29:14;14.48;;;5.85;;
4448;SDS011;2237;51.870;6.160;2022-12-18T04:31:40;13.65;;;5.50;;
4448;SDS011;2237;51.870;6.160;2022-12-18T04:34:06;15.63;;;5.72;;
4448;SDS011;2237;51.870;6.160;2022-12-18T04:36:33;9.88;;;4.32;;
4448;SDS011;2237;51.870;6.160;2022-12-18T04:38:59;11.45;;;4.75;;
4448;SDS011;2237;51.870;6.160;2022-12-18T04:41:25;16.20;;;6.40;;
4448;SDS011;2237;51.870;6.160;2022-12-18T04:43:52;12.43;;;5.00;;
4448;SDS011;2237;51.870;6.160;2022-12-18T04:46:18;10.57;;;2.88;;
4448;SDS011;2237;51.870;6.160;2022-12-18T04:48:45;10.40;;;4.85;;
4448;SDS011;2237;51.870;6.160;2022-12-18T04:51:12;16.10;;;5.35;;
4448;SDS011;2237;51.870;6.160;2022-12-18T04:53:39;13.13;;;5.05;;
4448;SDS011;2237;51.870;6.160;2022-12-18T04:56:07;10.70;;;4.82;;
4448;SDS011;2237;51.870;6.160;2022-12-18T04:58:35;12.48;;;5.03;;
4448;SDS011;2237;51.870;6.160;2022-12-18T05:01:02;7.68;;;4.18;;
4448;SDS011;2237;51.870;6.160;2022-12-18T05:03:29;12.77;;;5.50;;
4448;SDS011;2237;51.870;6.160;2022-12-18T05:05:56;12.88;;;5.05;;
4448;SDS011;2237;51.870;6.160;2022-12-18T05:08:22;13.57;;;6.00;;
4448;SDS011;2237;51.870;6.160;2022-12-18T05:10:49;11.82;;;5.60;;
4448;SDS011;2237;51.870;6.160;2022-12-18T05:13:15;11.00;;;4.60;;
4448;SDS011;2237;51.870;6.160;2022-12-18T05:15:42;12.52;;;4.45;;
4448;SDS011;2237;51.870;6.160;2022-12-18T05:18:08;14.07;;;5.00;;
4448;SDS011;2237;51.870;6.160;2022-12-18T05:20:34;13.32;;;5.38;;
4448;SDS011;2237;51.870;6.160;2022-12-18T05:23:01;14.73;;;5.82;;
4448;SDS011;2237;51.870;6.160;2022-12-18T05:25:27;15.23;;;6.68;;
4448;SDS011;2237;51.870;6.160;2022-12-18T05:27:53;10.60;;;4.22;;
4448;SDS011;2237;51.870;6.160;2022-12-18T05:30:20;5.65;;;2.75;;
4448;SDS011;2237;51.870;6.160;2022-12-18T05:32:46;10.80;;;5.10;;
4448;SDS011;2237;51.870;6.160;2022-12-18T05:35:12;12.18;;;5.15;;
4448;SDS011;2237;51.870;6.160;2022-12-18T05:37:39;11.50;;;3.78;;
4448;SDS011;2237;51.870;6.160;2022-12-18T05:40:08;15.32;;;6.25;;
4448;SDS011;2237;51.870;6.160;2022-12-18T05:42:35;11.30;;;3.13;;
4448;SDS011;2237;51.870;6.160;2022-12-18T05:45:02;10.73;;;4.50;;
4448;SDS011;2237;51.870;6.160;2022-12-18T05:47:29;13.60;;;5.75;;
4448;SDS011;2237;51.870;6.160;2022-12-18T05:49:55;13.77;;;4.57;;
4448;SDS011;2237;51.870;6.160;2022-12-18T05:52:22;13.23;;;5.07;;
4448;SDS011;2237;51.870;6.160;2022-12-18T05:54:48;12.35;;;4.68;;
4448;SDS011;2237;51.870;6.160;2022-12-18T05:57:14;4.72;;;2.30;;
4448;SDS011;2237;51.870;6.160;2022-12-18T05:59:41;6.07;;;2.83;;
4448;SDS011;2237;51.870;6.160;2022-12-18T06:02:07;4.38;;;2.70;;
4448;SDS011;2237;51.870;6.160;2022-12-18T06:04:34;11.60;;;5.45;;
4448;SDS011;2237;51.870;6.160;2022-12-18T06:07:00;7.78;;;3.42;;
4448;SDS011;2237;51.870;6.160;2022-12-18T06:09:29;8.27;;;4.07;;
4448;SDS011;2237;51.870;6.160;2022-12-18T06:11:55;4.72;;;2.47;;
4448;SDS011;2237;51.870;6.160;2022-12-18T06:14:22;14.52;;;5.65;;
4448;SDS011;2237;51.870;6.160;2022-12-18T06:16:50;17.42;;;6.05;;
4448;SDS011;2237;51.870;6.160;2022-12-18T06:19:17;7.43;;;3.75;;
4448;SDS011;2237;51.870;6.160;2022-12-18T06:21:44;7.07;;;3.35;;
4448;SDS011;2237;51.870;6.160;2022-12-18T06:24:10;8.05;;;3.45;;
4448;SDS011;2237;51.870;6.160;2022-12-18T06:26:37;10.43;;;4.32;;
4448;SDS011;2237;51.870;6.160;2022-12-18T06:29:05;5.63;;;2.95;;
4448;SDS011;2237;51.870;6.160;2022-12-18T06:31:31;4.47;;;2.42;;
4448;SDS011;2237;51.870;6.160;2022-12-18T06:33:57;14.20;;;5.50;;
4448;SDS011;2237;51.870;6.160;2022-12-18T06:36:24;3.85;;;1.83;;
4448;SDS011;2237;51.870;6.160;2022-12-18T06:38:50;10.15;;;4.60;;
4448;SDS011;2237;51.870;6.160;2022-12-18T06:41:17;9.30;;;3.47;;
4448;SDS011;2237;51.870;6.160;2022-12-18T06:43:45;10.82;;;3.80;;
4448;SDS011;2237;51.870;6.160;2022-12-18T06:46:12;15.73;;;5.30;;
4448;SDS011;2237;51.870;6.160;2022-12-18T06:48:38;12.32;;;4.25;;
4448;SDS011;2237;51.870;6.160;2022-12-18T06:51:05;13.18;;;5.57;;
4448;SDS011;2237;51.870;6.160;2022-12-18T06:53:32;15.57;;;5.32;;
4448;SDS011;2237;51.870;6.160;2022-12-18T06:56:00;10.77;;;4.82;;
4448;SDS011;2237;51.870;6.160;2022-12-18T06:58:35;14.77;;;5.72;;
4448;SDS011;2237;51.870;6.160;2022-12-18T07:01:05;16.17;;;5.65;;
4448;SDS011;2237;51.870;6.160;2022-12-18T07:03:33;13.25;;;4.85;;
4448;SDS011;2237;51.870;6.160;2022-12-18T07:05:59;14.80;;;5.68;;
4448;SDS011;2237;51.870;6.160;2022-12-18T07:08:26;10.35;;;4.63;;
4448;SDS011;2237;51.870;6.160;2022-12-18T07:10:52;11.52;;;5.20;;
4448;SDS011;2237;51.870;6.160;2022-12-18T07:13:21;9.27;;;3.45;;
4448;SDS011;2237;51.870;6.160;2022-12-18T07:15:48;10.80;;;4.32;;
4448;SDS011;2237;51.870;6.160;2022-12-18T07:18:15;5.15;;;2.55;;
4448;SDS011;2237;51.870;6.160;2022-12-18T07:20:41;12.05;;;4.15;;
4448;SDS011;2237;51.870;6.160;2022-12-18T07:23:07;12.57;;;4.38;;
4448;SDS011;2237;51.870;6.160;2022-12-18T07:25:37;6.13;;;3.47;;
4448;SDS011;2237;51.870;6.160;2022-12-18T07:28:05;12.65;;;3.25;;
4448;SDS011;2237;51.870;6.160;2022-12-18T07:30:31;10.85;;;3.85;;
4448;SDS011;2237;51.870;6.160;2022-12-18T07:32:58;11.45;;;4.07;;
4448;SDS011;2237;51.870;6.160;2022-12-18T07:35:24;9.90;;;4.15;;
4448;SDS011;2237;51.870;6.160;2022-12-18T07:37:50;7.43;;;2.92;;
4448;SDS011;2237;51.870;6.160;2022-12-18T07:40:17;7.03;;;3.03;;
4448;SDS011;2237;51.870;6.160;2022-12-18T07:42:43;11.07;;;4.30;;
4448;SDS011;2237;51.870;6.160;2022-12-18T07:45:09;6.03;;;3.35;;
4448;SDS011;2237;51.870;6.160;2022-12-18T07:47:36;7.72;;;3.83;;
4448;SDS011;2237;51.870;6.160;2022-12-18T07:50:03;6.15;;;2.40;;
4448;SDS011;2237;51.870;6.160;2022-12-18T07:52:31;8.23;;;3.17;;
4448;SDS011;2237;51.870;6.160;2022-12-18T07:54:58;10.20;;;3.05;;
4448;SDS011;2237;51.870;6.160;2022-12-18T07:57:24;9.73;;;3.70;;
4448;SDS011;2237;51.870;6.160;2022-12-18T08:00:11;8.75;;;3.25;;
4448;SDS011;2237;51.870;6.160;2022-12-18T08:02:38;10.07;;;3.55;;
4448;SDS011;2237;51.870;6.160;2022-12-18T08:05:04;8.38;;;3.35;;
4448;SDS011;2237;51.870;6.160;2022-12-18T08:07:32;10.07;;;3.35;;
4448;SDS011;2237;51.870;6.160;2022-12-18T08:09:58;5.50;;;2.78;;
4448;SDS011;2237;51.870;6.160;2022-12-18T08:12:25;7.40;;;3.10;;
4448;SDS011;2237;51.870;6.160;2022-12-18T08:14:51;9.75;;;3.50;;
4448;SDS011;2237;51.870;6.160;2022-12-18T08:17:18;11.15;;;4.90;;
4448;SDS011;2237;51.870;6.160;2022-12-18T08:19:45;10.43;;;3.83;;
4448;SDS011;2237;51.870;6.160;2022-12-18T08:22:12;9.45;;;4.18;;
4448;SDS011;2237;51.870;6.160;2022-12-18T08:24:38;12.02;;;4.40;;
4448;SDS011;2237;51.870;6.160;2022-12-18T08:27:04;11.15;;;3.72;;
4448;SDS011;2237;51.870;6.160;2022-12-18T08:29:51;5.80;;;3.05;;
4448;SDS011;2237;51.870;6.160;2022-12-18T08:32:17;9.88;;;3.05;;
4448;SDS011;2237;51.870;6.160;2022-12-18T08:34:44;11.57;;;4.30;;
4448;SDS011;2237;51.870;6.160;2022-12-18T08:37:10;4.95;;;2.20;;
4448;SDS011;2237;51.870;6.160;2022-12-18T08:39:36;7.43;;;2.83;;
4448;SDS011;2237;51.870;6.160;2022-12-18T08:42:02;5.15;;;2.13;;
4448;SDS011;2237;51.870;6.160;2022-12-18T08:44:48;5.70;;;1.85;;
4448;SDS011;2237;51.870;6.160;2022-12-18T08:47:14;11.23;;;4.50;;
4448;SDS011;2237;51.870;6.160;2022-12-18T08:49:40;8.65;;;3.67;;
4448;SDS011;2237;51.870;6.160;2022-12-18T08:52:07;8.30;;;3.17;;
4448;SDS011;2237;51.870;6.160;2022-12-18T08:54:33;7.13;;;3.00;;
4448;SDS011;2237;51.870;6.160;2022-12-18T08:56:59;10.40;;;4.63;;
4448;SDS011;2237;51.870;6.160;2022-12-18T08:59:26;8.48;;;4.07;;
4448;SDS011;2237;51.870;6.160;2022-12-18T09:01:54;8.30;;;3.85;;
4448;SDS011;2237;51.870;6.160;2022-12-18T09:04:21;4.95;;;2.13;;
4448;SDS011;2237;51.870;6.160;2022-12-18T09:06:48;6.35;;;3.05;;
4448;SDS011;2237;51.870;6.160;2022-12-18T09:09:14;8.52;;;3.03;;
4448;SDS011;2237;51.870;6.160;2022-12-18T09:11:40;12.43;;;5.15;;
4448;SDS011;2237;51.870;6.160;2022-12-18T09:14:08;8.63;;;3.08;;
4448;SDS011;2237;51.870;6.160;2022-12-18T09:16:36;8.05;;;3.03;;
4448;SDS011;2237;51.870;6.160;2022-12-18T09:19:03;11.25;;;3.42;;
4448;SDS011;2237;51.870;6.160;2022-12-18T09:21:31;8.30;;;3.55;;
4448;SDS011;2237;51.870;6.160;2022-12-18T09:24:02;8.07;;;3.75;;
4448;SDS011;2237;51.870;6.160;2022-12-18T09:26:30;7.28;;;3.05;;
4448;SDS011;2237;51.870;6.160;2022-12-18T09:28:56;3.22;;;1.70;;
4448;SDS011;2237;51.870;6.160;2022-12-18T09:31:23;9.80;;;3.55;;
4448;SDS011;2237;51.870;6.160;2022-12-18T09:33:50;6.43;;;2.72;;
4448;SDS011;2237;51.870;6.160;2022-12-18T09:36:17;11.35;;;3.83;;
4448;SDS011;2237;51.870;6.160;2022-12-18T09:38:44;14.80;;;5.47;;
4448;SDS011;2237;51.870;6.160;2022-12-18T09:44:00;12.25;;;4.88;;
4448;SDS011;2237;51.870;6.160;2022-12-18T09:46:33;7.45;;;3.03;;
4448;SDS011;2237;51.870;6.160;2022-12-18T09:49:05;5.70;;;2.65;;
4448;SDS011;2237;51.870;6.160;2022-12-18T09:51:50;7.43;;;3.40;;
4448;SDS011;2237;51.870;6.160;2022-12-18T09:54:35;9.93;;;4.53;;
4448;SDS011;2237;51.870;6.160;2022-12-18T09:57:05;8.65;;;3.28;;
4448;SDS011;2237;51.870;6.160;2022-12-18T09:59:33;10.43;;;3.45;;
4448;SDS011;2237;51.870;6.160;2022-12-18T10:02:15;14.68;;;4.90;;
4448;SDS011;2237;51.870;6.160;2022-12-18T10:04:45;7.13;;;3.42;;
4448;SDS011;2237;51.870;6.160;2022-12-18T10:07:24;8.27;;;3.10;;
4448;SDS011;2237;51.870;6.160;2022-12-18T10:10:50;13.20;;;4.47;;
4448;SDS011;2237;51.870;6.160;2022-12-18T10:18:59;7.80;;;3.00;;
4448;SDS011;2237;51.870;6.160;2022-12-18T10:21:51;5.47;;;2.35;;
4448;SDS011;2237;51.870;6.160;2022-12-18T10:25:01;8.20;;;4.05;;
4448;SDS011;2237;51.870;6.160;2022-12-18T10:27:40;6.18;;;2.50;;
4448;SDS011;2237;51.870;6.160;2022-12-18T10:30:18;10.43;;;4.18;;
4448;SDS011;2237;51.870;6.160;2022-12-18T10:32:46;8.50;;;3.85;;
4448;SDS011;2237;51.870;6.160;2022-12-18T10:35:22;9.85;;;4.00;;
4448;SDS011;2237;51.870;6.160;2022-12-18T10:41:04;5.10;;;2.45;;
4448;SDS011;2237;51.870;6.160;2022-12-18T10:46:46;9.48;;;3.95;;
4448;SDS011;2237;51.870;6.160;2022-12-18T10:49:29;5.55;;;1.63;;
4448;SDS011;2237;51.870;6.160;2022-12-18T10:52:04;14.90;;;5.32;;
4448;SDS011;2237;51.870;6.160;2022-12-18T10:54:33;5.85;;;2.75;;
4448;SDS011;2237;51.870;6.160;2022-12-18T10:59:53;8.27;;;3.33;;
4448;SDS011;2237;51.870;6.160;2022-12-18T11:02:34;8.65;;;4.03;;
4448;SDS011;2237;51.870;6.160;2022-12-18T11:05:22;5.00;;;2.97;;
4448;SDS011;2237;51.870;6.160;2022-12-18T11:07:59;8.85;;;2.80;;
4448;SDS011;2237;51.870;6.160;2022-12-18T11:10:33;5.45;;;1.63;;
4448;SDS011;2237;51.870;6.160;2022-12-18T11:13:21;5.78;;;2.80;;
4448;SDS011;2237;51.870;6.160;2022-12-18T11:15:49;10.02;;;3.97;;
4448;SDS011;2237;51.870;6.160;2022-12-18T11:20:51;6.28;;;2.75;;
4448;SDS011;2237;51.870;6.160;2022-12-18T11:23:24;11.40;;;4.47;;
4448;SDS011;2237;51.870;6.160;2022-12-18T11:25:52;9.63;;;4.00;;
4448;SDS011;2237;51.870;6.160;2022-12-18T11:28:28;9.37;;;4.00;;
4448;SDS011;2237;51.870;6.160;2022-12-18T11:34:11;10.40;;;4.50;;
4448;SDS011;2237;51.870;6.160;2022-12-18T11:36:56;9.25;;;3.53;;
4448;SDS011;2237;51.870;6.160;2022-12-18T11:39:38;10.02;;;3.70;;
4448;SDS011;2237;51.870;6.160;2022-12-18T11:42:18;10.27;;;4.13;;
4448;SDS011;2237;51.870;6.160;2022-12-18T11:47:57;10.40;;;4.70;;
4448;SDS011;2237;51.870;6.160;2022-12-18T11:53:19;5.83;;;2.00;;
4448;SDS011;2237;51.870;6.160;2022-12-18T12:07:14;11.65;;;4.85;;
4448;SDS011;2237;51.870;6.160;2022-12-18T12:12:20;7.13;;;3.08;;
4448;SDS011;2237;51.870;6.160;2022-12-18T12:15:21;14.50;;;5.22;;
4448;SDS011;2237;51.870;6.160;2022-12-18T12:18:13;10.63;;;5.05;;
4448;SDS011;2237;51.870;6.160;2022-12-18T12:23:51;10.18;;;4.28;;
4448;SDS011;2237;51.870;6.160;2022-12-18T12:26:29;11.10;;;4.68;;
4448;SDS011;2237;51.870;6.160;2022-12-18T12:34:26;12.52;;;4.18;;
4448;SDS011;2237;51.870;6.160;2022-12-18T12:39:48;12.88;;;3.97;;
4448;SDS011;2237;51.870;6.160;2022-12-18T12:42:41;8.98;;;3.35;;
4448;SDS011;2237;51.870;6.160;2022-12-18T12:45:32;12.73;;;3.83;;
4448;SDS011;2237;51.870;6.160;2022-12-18T12:48:04;9.13;;;4.22;;
4448;SDS011;2237;51.870;6.160;2022-12-18T12:50:35;10.93;;;3.85;;
4448;SDS011;2237;51.870;6.160;2022-12-18T12:53:05;13.68;;;4.20;;
4448;SDS011;2237;51.870;6.160;2022-12-18T12:55:37;11.13;;;4.93;;
4448;SDS011;2237;51.870;6.160;2022-12-18T12:58:07;14.60;;;5.38;;
4448;SDS011;2237;51.870;6.160;2022-12-18T13:06:16;9.80;;;4.20;;
4448;SDS011;2237;51.870;6.160;2022-12-18T13:11:41;13.00;;;4.80;;
4448;SDS011;2237;51.870;6.160;2022-12-18T13:14:30;9.82;;;3.97;;
4448;SDS011;2237;51.870;6.160;2022-12-18T13:19:50;7.65;;;3.63;;
4448;SDS011;2237;51.870;6.160;2022-12-18T13:22:28;10.68;;;4.00;;
4448;SDS011;2237;51.870;6.160;2022-12-18T13:24:57;16.20;;;5.30;;
4448;SDS011;2237;51.870;6.160;2022-12-18T13:28:37;11.68;;;4.90;;
4448;SDS011;2237;51.870;6.160;2022-12-18T13:38:22;6.45;;;2.67;;
4448;SDS011;2237;51.870;6.160;2022-12-18T13:40:58;13.98;;;4.97;;
4448;SDS011;2237;51.870;6.160;2022-12-18T13:43:33;17.23;;;4.28;;
4448;SDS011;2237;51.870;6.160;2022-12-18T13:48:51;11.75;;;4.68;;
4448;SDS011;2237;51.870;6.160;2022-12-18T13:51:39;12.00;;;5.10;;
4448;SDS011;2237;51.870;6.160;2022-12-18T13:56:46;8.43;;;4.13;;
4448;SDS011;2237;51.870;6.160;2022-12-18T13:59:18;14.32;;;5.47;;
4448;SDS011;2237;51.870;6.160;2022-12-18T14:01:51;12.38;;;4.93;;
4448;SDS011;2237;51.870;6.160;2022-12-18T14:04:23;19.98;;;5.85;;
4448;SDS011;2237;51.870;6.160;2022-12-18T14:06:54;15.27;;;5.70;;
4448;SDS011;2237;51.870;6.160;2022-12-18T14:09:27;19.80;;;3.92;;
4448;SDS011;2237;51.870;6.160;2022-12-18T14:11:57;12.52;;;5.80;;
4448;SDS011;2237;51.870;6.160;2022-12-18T14:14:44;12.73;;;5.18;;
4448;SDS011;2237;51.870;6.160;2022-12-18T14:17:15;17.70;;;5.90;;
4448;SDS011;2237;51.870;6.160;2022-12-18T14:19:49;18.05;;;6.07;;
4448;SDS011;2237;51.870;6.160;2022-12-18T14:22:20;13.43;;;4.13;;
4448;SDS011;2237;51.870;6.160;2022-12-18T14:27:42;12.55;;;4.05;;
4448;SDS011;2237;51.870;6.160;2022-12-18T14:30:24;7.32;;;3.45;;
4448;SDS011;2237;51.870;6.160;2022-12-18T14:35:37;9.80;;;4.60;;
4448;SDS011;2237;51.870;6.160;2022-12-18T14:40:57;15.60;;;5.63;;
4448;SDS011;2237;51.870;6.160;2022-12-18T14:43:28;7.72;;;3.45;;
4448;SDS011;2237;51.870;6.160;2022-12-18T14:45:57;14.48;;;5.70;;
4448;SDS011;2237;51.870;6.160;2022-12-18T14:48:31;14.93;;;4.95;;
4448;SDS011;2237;51.870;6.160;2022-12-18T14:51:03;14.20;;;4.38;;
4448;SDS011;2237;51.870;6.160;2022-12-18T14:53:33;14.33;;;6.30;;
4448;SDS011;2237;51.870;6.160;2022-12-18T14:56:03;17.17;;;6.75;;
4448;SDS011;2237;51.870;6.160;2022-12-18T14:58:44;16.55;;;3.75;;
4448;SDS011;2237;51.870;6.160;2022-12-18T15:01:22;11.80;;;5.32;;
4448;SDS011;2237;51.870;6.160;2022-12-18T15:03:51;16.00;;;6.18;;
4448;SDS011;2237;51.870;6.160;2022-12-18T15:06:27;12.90;;;5.65;;
4448;SDS011;2237;51.870;6.160;2022-12-18T15:08:56;13.32;;;6.55;;
4448;SDS011;2237;51.870;6.160;2022-12-18T15:11:34;9.70;;;4.40;;
4448;SDS011;2237;51.870;6.160;2022-12-18T15:14:22;15.05;;;6.22;;
4448;SDS011;2237;51.870;6.160;2022-12-18T15:17:01;13.32;;;6.20;;
4448;SDS011;2237;51.870;6.160;2022-12-18T15:19:36;16.27;;;6.68;;
4448;SDS011;2237;51.870;6.160;2022-12-18T15:22:13;10.85;;;4.35;;
4448;SDS011;2237;51.870;6.160;2022-12-18T15:24:47;13.60;;;6.15;;
4448;SDS011;2237;51.870;6.160;2022-12-18T15:27:21;18.20;;;6.25;;
4448;SDS011;2237;51.870;6.160;2022-12-18T15:30:00;14.02;;;6.78;;
4448;SDS011;2237;51.870;6.160;2022-12-18T15:32:39;7.55;;;3.90;;
4448;SDS011;2237;51.870;6.160;2022-12-18T15:37:37;17.35;;;6.65;;
4448;SDS011;2237;51.870;6.160;2022-12-18T15:40:05;12.40;;;5.25;;
4448;SDS011;2237;51.870;6.160;2022-12-18T15:42:32;15.77;;;5.93;;
4448;SDS011;2237;51.870;6.160;2022-12-18T15:45:17;16.85;;;6.75;;
4448;SDS011;2237;51.870;6.160;2022-12-18T15:47:44;14.10;;;5.75;;
4448;SDS011;2237;51.870;6.160;2022-12-18T15:50:11;13.00;;;6.18;;
4448;SDS011;2237;51.870;6.160;2022-12-18T15:52:43;19.45;;;7.32;;
4448;SDS011;2237;51.870;6.160;2022-12-18T15:55:12;16.00;;;6.68;;
4448;SDS011;2237;51.870;6.160;2022-12-18T15:57:59;18.98;;;6.78;;
4448;SDS011;2237;51.870;6.160;2022-12-18T16:00:25;15.93;;;5.22;;
4448;SDS011;2237;51.870;6.160;2022-12-18T16:02:52;18.05;;;7.15;;
4448;SDS011;2237;51.870;6.160;2022-12-18T16:05:20;15.98;;;7.05;;
4448;SDS011;2237;51.870;6.160;2022-12-18T16:07:47;16.52;;;5.40;;
4448;SDS011;2237;51.870;6.160;2022-12-18T16:10:14;14.45;;;4.72;;
4448;SDS011;2237;51.870;6.160;2022-12-18T16:12:40;18.00;;;7.40;;
4448;SDS011;2237;51.870;6.160;2022-12-18T16:15:10;31.45;;;7.07;;
4448;SDS011;2237;51.870;6.160;2022-12-18T16:17:39;18.17;;;7.70;;
4448;SDS011;2237;51.870;6.160;2022-12-18T16:20:11;19.25;;;7.80;;
4448;SDS011;2237;51.870;6.160;2022-12-18T16:22:42;19.55;;;7.20;;
4448;SDS011;2237;51.870;6.160;2022-12-18T16:25:23;20.50;;;7.38;;
4448;SDS011;2237;51.870;6.160;2022-12-18T16:27:51;16.15;;;7.20;;
4448;SDS011;2237;51.870;6.160;2022-12-18T16:30:22;21.35;;;8.73;;
4448;SDS011;2237;51.870;6.160;2022-12-18T16:32:58;16.30;;;6.80;;
4448;SDS011;2237;51.870;6.160;2022-12-18T16:35:25;16.70;;;7.65;;
4448;SDS011;2237;51.870;6.160;2022-12-18T16:37:52;21.63;;;8.88;;
4448;SDS011;2237;51.870;6.160;2022-12-18T16:40:19;18.73;;;7.70;;
4448;SDS011;2237;51.870;6.160;2022-12-18T16:42:45;21.40;;;8.48;;
4448;SDS011;2237;51.870;6.160;2022-12-18T16:45:13;21.65;;;8.18;;
4448;SDS011;2237;51.870;6.160;2022-12-18T16:47:41;14.35;;;6.05;;
4448;SDS011;2237;51.870;6.160;2022-12-18T16:50:08;23.00;;;8.15;;
4448;SDS011;2237;51.870;6.160;2022-12-18T16:52:36;19.50;;;7.80;;
4448;SDS011;2237;51.870;6.160;2022-12-18T16:55:03;18.77;;;8.77;;
4448;SDS011;2237;51.870;6.160;2022-12-18T16:57:30;18.85;;;7.63;;
4448;SDS011;2237;51.870;6.160;2022-12-18T16:59:56;18.42;;;8.48;;
4448;SDS011;2237;51.870;6.160;2022-12-18T17:02:30;14.40;;;5.88;;
4448;SDS011;2237;51.870;6.160;2022-12-18T17:04:57;18.90;;;7.68;;
4448;SDS011;2237;51.870;6.160;2022-12-18T17:07:23;22.83;;;9.10;;
4448;SDS011;2237;51.870;6.160;2022-12-18T17:09:51;25.42;;;8.30;;
4448;SDS011;2237;51.870;6.160;2022-12-18T17:12:19;21.67;;;8.77;;
4448;SDS011;2237;51.870;6.160;2022-12-18T17:14:45;21.92;;;8.90;;
4448;SDS011;2237;51.870;6.160;2022-12-18T17:17:11;21.77;;;8.60;;
4448;SDS011;2237;51.870;6.160;2022-12-18T17:19:48;19.77;;;7.95;;
4448;SDS011;2237;51.870;6.160;2022-12-18T17:22:14;18.77;;;8.10;;
4448;SDS011;2237;51.870;6.160;2022-12-18T17:24:41;20.85;;;8.93;;
4448;SDS011;2237;51.870;6.160;2022-12-18T17:27:07;21.02;;;9.07;;
4448;SDS011;2237;51.870;6.160;2022-12-18T17:29:34;24.20;;;9.40;;
4448;SDS011;2237;51.870;6.160;2022-12-18T17:32:00;21.88;;;8.98;;